Aeroporto :
LOGIN :

Iscrizione | Disclaimer

   EN    FR    IT 

 










Sommario :    VFR   VFR Marginale   IFR   IFR Intensivo   IFR Molto Intensivo
Visibilità : 
Base nubi : 
>= 8 km
>= 3000ft
5 / 8 km
1000 / 3000 ft
1500m / 5 km
500 / 1000 ft
800 / 1500m
200 / 500 ft
< 800m
< 200 ft
Simboli :   Temporali  Nebbia  Neve Forte  Precipitazioni Forti  Vento > 20 kt
SIGMETs :   Varie  Temporali  Ghiacco  Turbolenza  Onda orograficha  Ceneri Vulcaniche






- Altitudine del aeroporto : 288 ft
- Codice IATA : BZZ


EGVN - RAF Brize Norton

ULTIMO METAR :
  • 031320Z 04012KT 9999 -RA FEW028 SCT050 OVC060 16/10 Q1008 TEMPO SCT024 RMK BLU TEMPO WHT

METARs OBSOLETI :
  • 031250Z 04012KT 9999 -RA FEW025 SCT050 OVC065 16/09 Q1008 NOSIG RMK BLU BLU
  • 031221Z 05013KT 9999 FEW024 SCT045 OVC065 17/09 Q1008 NOSIG RMK BLU BLU
  • 031150Z 04011KT 9999 -RA FEW022 SCT045 OVC065 16/10 Q1009 NOSIG RMK BLU BLU
  • 031120Z 04010KT 9999 -RA FEW040 SCT050 OVC070 16/09 Q1009 NOSIG RMK BLU BLU
  • 031050Z 04010KT 9999 -RA SCT050 OVC070 16/09 Q1009 NOSIG

TAF TAF EGVN
Valido dal 03 a 12 ore il 04 a 12 ore UTC


031054Z 0312/0412 04010KT 9999 FEW040 BKN060
PROB40
TEMPO 0314/0318 SCT014
TEMPO 0318/0406 4500 -RADZ BKN010
PROB30
TEMPO 0406/0408 6000 -RADZ SCT014



MetMap, La meteo Aeronautica in un colpo d'occhio ! - Copyright ORBIFLY Dicembre 2007 - Disclaimer

ORBIFLY MET'MAP TEAM :

Programmazione e sviluppo : Alexandra Zaïnal
Concezione : Baudouin d'Aumeries
Aiuto per la programmazione : Marc-Olivier Méhu
Supporto tecnico e logistico : Manuel Goepfert
Aiuto per la traduzione : Arnaldo La Scala

Contatto : metmap@orbifly.com




FONTI E CREDITI :

   NOAA